Time;durP1;ratioP1;P1;durP2;ratioP2;P2;SDS_P1;SDS_P2;PMS_P1;PMS_P2;Temp;Humidity;BMP_temperature;BMP_pressure;BME280_temperature;BME280_humidity;BME280_pressure;Samples;Min_cycle;Max_cycle;Signal;HPM_P1;HPM_P2
2021/11/25 00:02:26;;;;;;;19.05;8.80;;;;;;;3.65;100.00;95601.22;5090317;28;20058;-73
2021/11/25 00:04:53;;;;;;;13.50;7.45;;;;;;;3.70;100.00;95603.31;5091885;28;20048;-74
2021/11/25 00:07:20;;;;;;;19.83;9.05;;;;;;;3.68;100.00;95600.09;5093677;28;20047;-74
2021/11/25 00:09:47;;;;;;;18.63;8.35;;;;;;;3.53;100.00;95597.41;5098912;28;20436;-74
2021/11/25 00:12:14;;;;;;;22.23;8.98;;;;;;;3.53;100.00;95599.97;5096049;28;20075;-74
2021/11/25 00:14:41;;;;;;;15.88;7.75;;;;;;;3.25;100.00;95565.16;5074733;28;20564;-73
2021/11/25 00:17:08;;;;;;;16.65;8.57;;;;;;;3.48;100.00;95605.66;5093116;28;20079;-73
2021/11/25 00:19:35;;;;;;;15.05;8.13;;;;;;;3.45;100.00;95611.13;5090676;28;20043;-74
2021/11/25 00:22:02;;;;;;;14.75;8.43;;;;;;;3.40;100.00;95601.34;5091091;28;20056;-73
2021/11/25 00:24:29;;;;;;;14.85;8.00;;;;;;;3.37;100.00;95598.28;5088067;28;20055;-73
2021/11/25 00:26:56;;;;;;;14.38;7.28;;;;;;;3.40;100.00;95608.25;5089246;28;20413;-73
2021/11/25 00:29:23;;;;;;;15.55;6.82;;;;;;;3.39;100.00;95606.66;5074712;28;20052;-74
2021/11/25 00:31:50;;;;;;;24.40;8.70;;;;;;;3.35;100.00;95608.75;5093473;28;20058;-73
2021/11/25 00:34:18;;;;;;;12.80;7.28;;;;;;;3.40;100.00;95603.91;5094097;28;20044;-73
2021/11/25 00:36:45;;;;;;;11.45;6.65;;;;;;;3.40;100.00;95600.53;5093642;28;20451;-73
2021/11/25 00:39:12;;;;;;;14.07;7.93;;;;;;;3.36;100.00;95604.41;5094475;28;20051;-73
2021/11/25 00:41:41;;;;;;;14.30;7.30;;;;;;;3.34;100.00;95604.56;5097694;28;20048;-74
2021/11/25 00:44:08;;;;;;;17.50;8.20;;;;;;;3.36;100.00;95606.97;5095801;28;20044;-74
2021/11/25 00:46:35;;;;;;;13.13;6.40;;;;;;;3.36;100.00;95601.81;5092363;28;20047;-74
2021/11/25 00:49:03;;;;;;;14.50;8.10;;;;;;;3.32;100.00;95600.56;5095717;28;20421;-73
2021/11/25 00:51:30;;;;;;;14.32;7.93;;;;;;;3.27;100.00;95588.19;5093564;28;20040;-74
2021/11/25 00:53:57;;;;;;;10.15;6.18;;;;;;;3.16;100.00;95571.31;5094412;28;20039;-74
2021/11/25 00:56:23;;;;;;;14.15;7.55;;;;;;;3.18;100.00;95574.53;5091043;28;20044;-74
2021/11/25 00:58:50;;;;;;;12.00;7.43;;;;;;;3.14;100.00;95565.53;5090146;28;20553;-74
2021/11/25 01:01:17;;;;;;;11.95;6.63;;;;;;;3.15;100.00;95574.06;5091192;28;20044;-74
2021/11/25 01:03:45;;;;;;;13.63;8.02;;;;;;;3.24;100.00;95584.19;5077178;28;20058;-73
2021/11/25 01:06:12;;;;;;;13.73;7.65;;;;;;;3.23;100.00;95579.97;5094809;28;20040;-73
2021/11/25 01:08:39;;;;;;;12.43;6.80;;;;;;;3.15;100.00;95567.16;5089555;28;20048;-73
2021/11/25 01:11:06;;;;;;;13.90;8.75;;;;;;;3.21;100.00;95569.06;5092251;28;20051;-73
2021/11/25 01:13:33;;;;;;;15.52;8.98;;;;;;;3.20;100.00;95577.72;5093695;28;20542;-74
2021/11/25 01:16:00;;;;;;;16.80;9.45;;;;;;;3.06;100.00;95571.53;5093351;28;20050;-73
2021/11/25 01:18:27;;;;;;;15.35;8.68;;;;;;;3.14;100.00;95570.69;5090928;28;20035;-73
2021/11/25 01:20:54;;;;;;;15.55;7.97;;;;;;;3.04;100.00;95567.50;5090632;28;20075;-73
2021/11/25 01:23:27;;;;;;;16.05;8.25;;;;;;;3.07;100.00;95572.31;5090116;28;20615;-73
2021/11/25 01:25:56;;;;;;;16.13;8.63;;;;;;;3.07;100.00;95569.75;5093679;28;20043;-74
2021/11/25 01:28:25;;;;;;;24.85;8.10;;;;;;;3.07;100.00;95572.31;5094698;28;20039;-74
2021/11/25 01:30:55;;;;;;;14.52;7.82;;;;;;;3.12;100.00;95570.06;5095990;28;20092;-73
2021/11/25 01:33:24;;;;;;;14.98;8.45;;;;;;;3.03;100.00;95576.19;5074956;28;20362;-73
2021/11/25 01:35:52;;;;;;;11.45;6.82;;;;;;;3.04;100.00;95573.47;5089899;28;20042;-74
2021/11/25 01:38:20;;;;;;;17.80;8.20;;;;;;;2.98;100.00;95563.81;5076382;28;20063;-74
2021/11/25 01:40:48;;;;;;;18.83;9.90;;;;;;;2.89;100.00;95556.28;5093853;28;20055;-74
2021/11/25 01:43:20;;;;;;;14.65;7.90;;;;;;;2.85;100.00;95554.03;5070483;28;20052;-74
2021/11/25 01:45:53;;;;;;;13.05;7.70;;;;;;;2.89;100.00;95561.44;5093688;28;20493;-74
2021/11/25 01:48:20;;;;;;;12.35;7.35;;;;;;;2.83;100.00;95571.41;5092056;28;20489;-74
2021/11/25 01:50:49;;;;;;;15.68;8.07;;;;;;;2.84;100.00;95559.34;5090679;28;20044;-74
2021/11/25 01:53:18;;;;;;;16.15;8.65;;;;;;;2.77;100.00;95566.91;5094889;28;20115;-74
2021/11/25 01:55:45;;;;;;;19.30;7.90;;;;;;;2.79;100.00;95559.84;5092597;28;20124;-74
2021/11/25 01:58:12;;;;;;;14.52;8.20;;;;;;;2.79;100.00;95565.00;5090893;28;20059;-74
2021/11/25 02:00:46;;;;;;;19.83;9.23;;;;;;;2.80;100.00;95566.59;5091681;28;20055;-74
2021/11/25 02:03:14;;;;;;;19.90;8.32;;;;;;;2.79;100.00;95570.16;5080338;28;20048;-74
2021/11/25 02:05:41;;;;;;;13.35;6.40;;;;;;;2.77;100.00;95566.91;5091637;28;20031;-74
2021/11/25 02:08:09;;;;;;;15.00;7.90;;;;;;;2.65;100.00;95551.03;5095698;28;20036;-74
2021/11/25 02:10:38;;;;;;;14.80;7.63;;;;;;;2.78;100.00;95563.38;5092571;28;20043;-74
2021/11/25 02:13:05;;;;;;;13.55;7.53;;;;;;;2.76;100.00;95560.19;5094940;28;20520;-74
2021/11/25 02:15:35;;;;;;;10.90;6.85;;;;;;;2.73;100.00;95550.22;5097631;28;20113;-74
2021/11/25 02:18:11;;;;;;;11.05;6.47;;;;;;;2.81;100.00;95554.53;5092407;28;20040;-74
2021/11/25 02:20:40;;;;;;;17.30;7.30;;;;;;;2.81;100.00;95547.63;5100920;28;20517;-74
2021/11/25 02:23:09;;;;;;;14.63;8.02;;;;;;;2.90;100.00;95557.88;5076820;28;20047;-74
2021/11/25 02:25:37;;;;;;;12.05;6.72;;;;;;;2.89;100.00;95553.72;5076134;28;20040;-74
2021/11/25 02:28:05;;;;;;;14.77;7.53;;;;;;;2.91;100.00;95546.63;5096955;28;20048;-74
2021/11/25 02:30:40;;;;;;;12.57;7.70;;;;;;;2.87;100.00;95541.81;5096479;28;20051;-74
2021/11/25 02:33:07;;;;;;;16.15;7.95;;;;;;;2.90;100.00;95551.00;5098058;28;20031;-73
2021/11/25 02:35:39;;;;;;;17.83;8.43;;;;;;;2.94;100.00;95543.75;5100577;28;20031;-74
2021/11/25 02:38:07;;;;;;;16.88;7.90;;;;;;;2.94;100.00;95547.09;5096830;28;20039;-74
2021/11/25 02:40:43;;;;;;;17.48;8.90;;;;;;;2.90;100.00;95539.88;5098447;28;20468;-74
2021/11/25 02:43:16;;;;;;;18.27;8.13;;;;;;;2.92;100.00;95548.22;5092566;28;20035;-74
2021/11/25 02:45:46;;;;;;;19.42;9.15;;;;;;;2.86;100.00;95535.06;5097519;28;20424;-74
2021/11/25 02:48:13;;;;;;;19.73;8.10;;;;;;;2.90;100.00;95540.69;5101088;28;20035;-74
2021/11/25 02:50:40;;;;;;;12.38;7.32;;;;;;;2.84;100.00;95547.28;5096900;28;20490;-74
2021/11/25 02:53:08;;;;;;;15.27;7.47;;;;;;;2.84;100.00;95547.28;5092136;28;20118;-74
2021/11/25 02:55:36;;;;;;;11.63;7.57;;;;;;;2.78;100.00;95537.66;5095984;28;20048;-74
2021/11/25 02:58:04;;;;;;;14.13;6.05;;;;;;;2.77;100.00;95533.47;5097085;28;20052;-74
2021/11/25 03:00:38;;;;;;;11.27;5.88;;;;;;;2.70;100.00;95529.94;5092796;28;20050;-74
2021/11/25 03:03:11;;;;;;;14.00;6.93;;;;;;;2.74;100.00;95526.09;5097639;28;20055;-74
2021/11/25 03:05:40;;;;;;;14.10;7.25;;;;;;;2.73;100.00;95534.78;5094992;28;20040;-74
2021/11/25 03:08:09;;;;;;;13.18;6.70;;;;;;;2.72;100.00;95528.03;5094055;28;20039;-73
2021/11/25 03:10:43;;;;;;;11.88;6.45;;;;;;;2.75;100.00;95532.84;5095813;28;20039;-74
2021/11/25 03:13:13;;;;;;;18.80;8.35;;;;;;;2.67;100.00;95525.16;5098730;28;20096;-74
2021/11/25 03:15:41;;;;;;;13.35;7.15;;;;;;;2.71;100.00;95530.78;5093863;28;20060;-74
2021/11/25 03:18:10;;;;;;;14.48;7.57;;;;;;;2.73;100.00;95514.19;5094950;28;20036;-74
2021/11/25 03:20:40;;;;;;;21.35;9.25;;;;;;;2.81;100.00;95532.19;5102164;28;20428;-74
2021/11/25 03:23:08;;;;;;;18.30;7.63;;;;;;;2.74;100.00;95520.97;5093398;28;20040;-74
2021/11/25 03:25:37;;;;;;;14.25;7.57;;;;;;;2.74;100.00;95531.25;5085811;28;20058;-74
2021/11/25 03:28:04;;;;;;;15.07;8.25;;;;;;;2.78;100.00;95527.38;5092190;28;20052;-74
2021/11/25 03:30:34;;;;;;;18.90;8.25;;;;;;;2.74;100.00;95518.38;5097649;28;20044;-74
2021/11/25 03:33:02;;;;;;;13.93;6.95;;;;;;;2.77;100.00;95528.31;5096850;28;20474;-73
2021/11/25 03:35:30;;;;;;;12.23;7.65;;;;;;;2.71;100.00;95515.34;5075897;28;20498;-73
2021/11/25 03:37:57;;;;;;;19.70;9.57;;;;;;;2.64;100.00;95515.97;5096557;28;20082;-73
2021/11/25 03:40:24;;;;;;;15.25;8.20;;;;;;;2.67;100.00;95514.88;5096493;28;20046;-73
2021/11/25 03:42:53;;;;;;;15.27;8.38;;;;;;;2.73;100.00;95527.06;5093480;28;20118;-74
2021/11/25 03:45:20;;;;;;;15.45;7.57;;;;;;;2.71;100.00;95526.41;5096979;28;20040;-73
2021/11/25 03:47:47;;;;;;;16.20;8.68;;;;;;;2.72;100.00;95522.91;5092225;28;20100;-73
2021/11/25 03:50:15;;;;;;;15.20;8.23;;;;;;;2.73;100.00;95527.06;5099157;28;20039;-73
2021/11/25 03:52:42;;;;;;;17.83;9.35;;;;;;;2.71;100.00;95521.28;5093300;28;20047;-74
2021/11/25 03:55:11;;;;;;;17.52;7.90;;;;;;;2.58;100.00;95500.44;5090538;28;20561;-74
2021/11/25 03:57:39;;;;;;;13.05;6.95;;;;;;;2.60;100.00;95508.78;5092608;28;20043;-74
2021/11/25 04:00:09;;;;;;;13.57;7.15;;;;;;;2.71;100.00;95518.69;5096748;28;20538;-75
2021/11/25 04:02:42;;;;;;;12.98;6.68;;;;;;;2.73;100.00;95524.47;5092365;28;20046;-74
2021/11/25 04:05:10;;;;;;;14.52;6.60;;;;;;;2.72;100.00;95517.75;5094783;28;20055;-74
2021/11/25 04:07:37;;;;;;;12.43;6.68;;;;;;;2.68;100.00;95511.31;5092973;28;20052;-73
2021/11/25 04:10:05;;;;;;;11.75;5.78;;;;;;;2.67;100.00;95510.50;5093101;28;20048;-73
2021/11/25 04:12:33;;;;;;;14.18;6.55;;;;;;;2.70;100.00;95514.50;5097651;28;20421;-74
2021/11/25 04:15:01;;;;;;;14.48;6.57;;;;;;;2.68;100.00;95508.75;5099034;28;20043;-73
2021/11/25 04:17:27;;;;;;;11.60;6.72;;;;;;;2.65;100.00;95506.50;5096537;28;20107;-73
2021/11/25 04:19:54;;;;;;;11.95;6.53;;;;;;;2.70;100.00;95498.28;5099626;28;20047;-73
2021/11/25 04:22:22;;;;;;;9.00;5.55;;;;;;;2.63;100.00;95487.88;5075340;28;20032;-73
2021/11/25 04:24:50;;;;;;;11.95;6.75;;;;;;;2.60;100.00;95488.19;5090437;28;20043;-73
2021/11/25 04:27:17;;;;;;;9.63;6.40;;;;;;;2.64;100.00;95500.53;5090962;28;20039;-74
2021/11/25 04:29:56;;;;;;;13.50;6.80;;;;;;;2.59;100.00;95502.00;5094708;28;20036;-73
2021/11/25 04:35:31;;;;;;;13.68;7.25;;;;;;;2.57;100.00;95501.38;5094099;28;20443;-73
2021/11/25 04:38:02;;;;;;;14.00;8.23;;;;;;;2.59;100.00;95507.16;5091586;28;20052;-73
2021/11/25 04:40:34;;;;;;;15.52;7.72;;;;;;;2.59;100.00;95494.28;5087221;28;20040;-73
2021/11/25 04:43:03;;;;;;;15.70;8.48;;;;;;;2.64;100.00;95510.84;5095774;28;20064;-73
2021/11/25 04:45:30;;;;;;;12.35;7.05;;;;;;;2.65;100.00;95507.31;5090323;28;20520;-74
2021/11/25 04:47:57;;;;;;;14.10;8.15;;;;;;;2.61;100.00;95505.22;5093301;28;20111;-73
2021/11/25 04:50:24;;;;;;;15.00;7.68;;;;;;;2.62;100.00;95506.84;5076594;28;20047;-74
2021/11/25 04:52:51;;;;;;;14.50;7.18;;;;;;;2.52;100.00;95506.22;5091912;28;20460;-73
2021/11/25 04:55:18;;;;;;;17.10;7.13;;;;;;;2.48;100.00;95509.13;5087841;28;20505;-73
2021/11/25 04:57:45;;;;;;;12.48;6.72;;;;;;;2.47;100.00;95504.94;5094190;28;20043;-73
2021/11/25 05:00:14;;;;;;;12.68;6.43;;;;;;;2.47;100.00;95494.66;5073384;28;20055;-74
2021/11/25 05:02:41;;;;;;;14.07;7.45;;;;;;;2.39;100.00;95496.44;5094879;28;20039;-74
2021/11/25 05:05:09;;;;;;;8.70;6.07;;;;;;;2.34;100.00;95486.66;5093822;28;20035;-73
2021/11/25 05:07:36;;;;;;;13.68;6.80;;;;;;;2.39;100.00;95497.22;5091939;28;20837;-74
2021/11/25 05:10:05;;;;;;;11.48;6.10;;;;;;;2.41;100.00;95500.47;5097207;28;20042;-73
2021/11/25 05:12:33;;;;;;;11.15;6.25;;;;;;;2.38;100.00;95500.78;5093505;28;20046;-73
2021/11/25 05:15:00;;;;;;;14.60;7.13;;;;;;;2.32;100.00;95501.41;5095773;28;20100;-73
2021/11/25 05:17:27;;;;;;;15.45;7.32;;;;;;;2.25;100.00;95480.72;5095730;28;20631;-73
2021/11/25 05:19:54;;;;;;;13.00;7.13;;;;;;;2.33;100.00;95494.53;5092205;28;20039;-73
2021/11/25 05:22:21;;;;;;;15.55;8.60;;;;;;;2.23;100.00;95486.97;5092372;28;20509;-73
2021/11/25 05:24:48;;;;;;;14.52;8.40;;;;;;;2.26;100.00;95491.78;5092505;28;20051;-73
2021/11/25 05:27:15;;;;;;;14.38;7.55;;;;;;;2.21;100.00;95473.47;5091072;28;20619;-73
2021/11/25 05:29:42;;;;;;;13.55;7.65;;;;;;;2.33;100.00;95492.75;5095709;28;20043;-73
2021/11/25 05:32:09;;;;;;;11.52;6.90;;;;;;;2.29;100.00;95501.75;5092741;28;20050;-73
2021/11/25 05:34:37;;;;;;;16.30;7.55;;;;;;;2.29;100.00;95501.75;5092280;28;20048;-74
2021/11/25 05:37:04;;;;;;;17.80;8.80;;;;;;;2.24;100.00;95488.59;5093447;28;20068;-73
2021/11/25 05:39:31;;;;;;;19.65;8.13;;;;;;;2.27;100.00;95488.28;5094424;28;20400;-73
2021/11/25 05:41:58;;;;;;;17.88;8.75;;;;;;;2.42;100.00;95496.13;5092037;28;20047;-74
2021/11/25 05:44:25;;;;;;;15.15;8.90;;;;;;;2.41;100.00;95505.59;5089334;28;20059;-73
2021/11/25 05:46:52;;;;;;;12.90;6.97;;;;;;;2.35;100.00;95506.25;5089589;28;20036;-73
2021/11/25 05:49:20;;;;;;;13.75;7.10;;;;;;;2.33;100.00;95497.88;5072861;28;20043;-73
2021/11/25 05:51:46;;;;;;;14.68;7.97;;;;;;;2.39;100.00;95496.44;5079377;28;20048;-73
2021/11/25 05:54:13;;;;;;;10.05;5.90;;;;;;;2.43;100.00;95510.56;5097456;28;20044;-73
2021/11/25 05:56:40;;;;;;;11.13;6.47;;;;;;;2.30;100.00;95493.06;5098304;28;20112;-74
2021/11/25 05:59:08;;;;;;;10.75;5.95;;;;;;;2.41;100.00;95495.31;5098985;28;20493;-73
2021/11/25 06:01:35;;;;;;;13.90;6.88;;;;;;;2.49;100.00;95512.50;5097536;28;20044;-74
2021/11/25 06:04:02;;;;;;;10.88;7.05;;;;;;;2.40;100.00;95498.84;5098152;28;20040;-74
2021/11/25 06:06:29;;;;;;;11.55;5.38;;;;;;;2.54;100.00;95512.81;5078502;28;20040;-73
2021/11/25 06:08:56;;;;;;;10.98;6.22;;;;;;;2.52;100.00;95516.50;5074200;28;20059;-73
2021/11/25 06:11:23;;;;;;;13.05;5.75;;;;;;;2.52;100.00;95501.06;5091159;28;20036;-74
2021/11/25 06:13:51;;;;;;;13.90;7.22;;;;;;;2.57;100.00;95517.59;5092685;28;20390;-74
2021/11/25 06:16:19;;;;;;;10.38;6.65;;;;;;;2.62;100.00;95527.41;5093321;28;20047;-73
2021/11/25 06:18:46;;;;;;;14.30;7.32;;;;;;;2.66;100.00;95529.47;5093066;28;20122;-73
2021/11/25 06:21:13;;;;;;;9.70;5.70;;;;;;;2.56;100.00;95530.66;5093815;28;20047;-73
2021/11/25 06:23:41;;;;;;;12.93;6.65;;;;;;;2.59;100.00;95527.72;5090424;28;20515;-72
2021/11/25 06:26:08;;;;;;;10.23;5.57;;;;;;;2.60;100.00;95521.63;5070070;28;20059;-72
2021/11/25 06:28:34;;;;;;;9.63;5.63;;;;;;;2.71;100.00;95535.91;5076125;28;20032;-72
2021/11/25 06:31:02;;;;;;;13.00;5.95;;;;;;;2.64;100.00;95530.63;5094312;28;20046;-72
2021/11/25 06:33:29;;;;;;;16.63;8.27;;;;;;;2.67;100.00;95525.16;5087162;28;20048;-72
2021/11/25 06:35:59;;;;;;;11.48;6.35;;;;;;;2.70;100.00;95526.59;5092662;28;20035;-72
2021/11/25 06:38:26;;;;;;;11.43;5.85;;;;;;;2.67;100.00;95525.16;5088221;28;20085;-72
2021/11/25 06:40:53;;;;;;;11.95;6.70;;;;;;;2.71;100.00;95531.56;5090818;28;20410;-71
2021/11/25 06:43:19;;;;;;;12.52;6.05;;;;;;;2.69;100.00;95528.34;5087946;28;20036;-71
2021/11/25 06:45:48;;;;;;;11.13;6.07;;;;;;;2.64;100.00;95515.19;5094293;28;20040;-71
2021/11/25 06:48:14;;;;;;;9.93;5.60;;;;;;;2.72;100.00;95535.75;5091329;28;20048;-71
2021/11/25 06:50:41;;;;;;;15.10;7.90;;;;;;;2.75;100.00;95532.03;5086241;28;20079;-72
2021/11/25 06:53:08;;;;;;;10.07;6.57;;;;;;;2.78;100.00;95527.38;5088765;28;20435;-72
2021/11/25 06:55:35;;;;;;;18.88;9.25;;;;;;;2.85;100.00;95528.31;5091237;28;20040;-72
2021/11/25 06:58:02;;;;;;;15.90;8.45;;;;;;;2.75;100.00;95507.09;5082887;28;20032;-72
2021/11/25 07:00:30;;;;;;;15.95;8.00;;;;;;;2.94;100.00;95525.72;5088671;28;20043;-72
2021/11/25 07:02:57;;;;;;;13.13;6.75;;;;;;;2.91;100.00;95520.91;5091498;28;20147;-72
2021/11/25 07:05:25;;;;;;;25.05;11.00;;;;;;;2.89;100.00;95507.41;5092452;28;20088;-72
2021/11/25 07:07:53;;;;;;;14.13;5.78;;;;;;;2.96;100.00;95510.91;5087554;28;20047;-72
2021/11/25 07:10:20;;;;;;;12.40;7.07;;;;;;;3.07;100.00;95520.84;5092761;28;20032;-73
2021/11/25 07:12:48;;;;;;;16.70;7.60;;;;;;;3.08;100.00;95524.22;5092949;28;20051;-73
2021/11/25 07:15:16;;;;;;;17.02;7.85;;;;;;;3.08;100.00;95517.31;5087189;28;20052;-72
2021/11/25 07:17:45;;;;;;;15.50;9.60;;;;;;;3.09;100.00;95516.31;5086107;28;20063;-73
2021/11/25 07:20:13;;;;;;;17.17;10.75;;;;;;;2.98;100.00;95508.97;5087643;28;20425;-73
2021/11/25 07:22:41;;;;;;;12.43;6.50;;;;;;;3.13;100.00;95514.22;5074310;28;20058;-73
2021/11/25 07:25:09;;;;;;;10.77;6.65;;;;;;;3.21;100.00;95517.56;5093608;28;20428;-73
2021/11/25 07:27:38;;;;;;;11.88;7.45;;;;;;;3.14;100.00;95516.63;5095587;28;20062;-72
2021/11/25 07:30:08;;;;;;;13.77;6.50;;;;;;;3.15;100.00;95507.94;5073328;28;20039;-72
2021/11/25 07:32:36;;;;;;;10.13;6.32;;;;;;;3.15;100.00;95502.81;5093240;28;20050;-74
2021/11/25 07:35:05;;;;;;;10.40;5.85;;;;;;;3.21;100.00;95502.13;5078060;28;20414;-74
2021/11/25 07:37:32;;;;;;;18.23;10.70;;;;;;;3.24;100.00;95511.25;5099263;28;20137;-73
2021/11/25 07:39:58;;;;;;;19.73;10.40;;;;;;;3.26;100.00;95504.19;5091157;28;20050;-73
2021/11/25 07:42:25;;;;;;;13.15;9.02;;;;;;;3.29;100.00;95510.78;5090485;28;20115;-73
2021/11/25 07:44:53;;;;;;;15.93;7.63;;;;;;;3.24;100.00;95491.50;5077982;28;20043;-74
2021/11/25 07:47:22;;;;;;;10.02;5.90;;;;;;;3.40;100.00;95510.38;5094246;28;20527;-73
2021/11/25 07:49:49;;;;;;;10.85;6.20;;;;;;;3.43;100.00;95515.22;5091963;28;20562;-73
2021/11/25 07:52:16;;;;;;;11.15;5.78;;;;;;;3.43;100.00;95507.47;5058675;28;20042;-73
2021/11/25 07:54:43;;;;;;;8.85;5.57;;;;;;;3.45;100.00;95502.97;5064994;28;20051;-73
2021/11/25 07:57:10;;;;;;;10.77;6.82;;;;;;;3.55;100.00;95513.84;5095313;28;20114;-73
2021/11/25 07:59:37;;;;;;;14.55;7.07;;;;;;;3.48;100.00;95487.19;5094503;28;20040;-73
2021/11/25 08:02:04;;;;;;;12.43;6.78;;;;;;;3.64;100.00;95512.84;5072277;28;20047;-73
2021/11/25 08:04:31;;;;;;;11.00;5.85;;;;;;;3.69;100.00;95503.78;5074385;28;20784;-74
2021/11/25 08:06:57;;;;;;;18.08;9.98;;;;;;;3.69;100.00;95498.63;5092313;28;20050;-73
2021/11/25 08:09:24;;;;;;;15.02;6.97;;;;;;;3.73;100.00;95492.97;5098778;28;20043;-74
2021/11/25 08:11:51;;;;;;;18.45;8.30;;;;;;;3.74;100.00;95501.50;5096100;28;20041;-73
2021/11/25 08:14:22;;;;;;;11.63;7.13;;;;;;;3.70;100.00;95498.47;5094153;28;20040;-74
2021/11/25 08:16:48;;;;;;;11.07;7.00;;;;;;;3.72;100.00;95485.41;5100440;28;20386;-72
2021/11/25 08:19:15;;;;;;;13.27;7.22;;;;;;;3.81;100.00;95486.94;5094899;28;20505;-73
2021/11/25 08:21:43;;;;;;;8.15;5.72;;;;;;;3.82;99.88;95484.22;5091804;28;20039;-73
2021/11/25 08:24:10;;;;;;;10.27;6.15;;;;;;;3.78;100.00;95480.38;5092186;28;20047;-72
2021/11/25 08:26:37;;;;;;;13.40;7.72;;;;;;;3.52;99.63;95447.22;5084431;28;20509;-73
2021/11/25 08:29:03;;;;;;;13.98;6.53;;;;;;;3.63;100.00;95467.41;5095138;28;20393;-76
2021/11/25 08:31:30;;;;;;;11.98;7.32;;;;;;;3.67;99.88;95479.97;5091508;28;20031;-74
2021/11/25 08:33:57;;;;;;;16.25;9.30;;;;;;;3.81;100.00;95476.66;5094427;28;20110;-75
2021/11/25 08:36:24;;;;;;;17.27;10.55;;;;;;;3.87;99.08;95475.97;5096380;28;20066;-74
2021/11/25 08:38:51;;;;;;;15.15;8.57;;;;;;;3.89;98.88;95462.88;5096212;28;20119;-75
2021/11/25 08:41:18;;;;;;;9.50;5.97;;;;;;;3.84;97.95;95471.16;5088200;28;20074;-72
2021/11/25 08:43:46;;;;;;;12.43;6.60;;;;;;;3.96;98.62;95469.78;5089767;28;20071;-76
2021/11/25 08:46:13;;;;;;;17.85;8.23;;;;;;;4.01;98.13;95459.72;5093329;28;20035;-76
2021/11/25 08:48:40;;;;;;;9.38;5.63;;;;;;;3.92;99.02;95455.63;5088695;28;20047;-76
2021/11/25 08:51:06;;;;;;;17.88;9.75;;;;;;;4.04;100.00;95460.38;5090288;28;20051;-73
2021/11/25 08:53:33;;;;;;;13.60;8.25;;;;;;;4.04;99.87;95453.44;5069469;28;20036;-77
2021/11/25 08:56:01;;;;;;;13.27;6.97;;;;;;;3.96;99.26;95423.38;5087168;28;20058;-75
2021/11/25 08:58:28;;;;;;;12.48;6.93;;;;;;;4.17;98.75;95439.94;5069428;28;20104;-78
2021/11/25 09:00:55;;;;;;;14.73;7.25;;;;;;;4.26;98.38;95433.72;5089357;28;20126;-76
2021/11/25 09:03:26;;;;;;;15.45;8.50;;;;;;;4.15;97.39;95441.91;5089957;28;20040;-76
2021/11/25 09:05:57;;;;;;;14.52;7.43;;;;;;;4.26;98.11;95441.47;5087891;28;20032;-75
2021/11/25 09:08:29;;;;;;;11.25;6.28;;;;;;;4.28;98.04;95434.34;5088155;28;20164;-77
2021/11/25 09:10:56;;;;;;;10.27;6.32;;;;;;;4.21;97.14;95438.59;5068485;28;20517;-76
2021/11/25 09:13:23;;;;;;;11.57;7.55;;;;;;;4.23;97.13;95428.91;5091715;28;20061;-77
2021/11/25 09:15:50;;;;;;;14.80;7.55;;;;;;;4.19;96.47;95422.50;5090569;28;20119;-75
2021/11/25 09:18:18;;;;;;;9.00;5.47;;;;;;;4.35;96.52;95422.34;5092343;28;20046;-77
2021/11/25 09:20:45;;;;;;;9.20;5.65;;;;;;;4.40;95.86;95427.78;5072345;28;20047;-76
2021/11/25 09:23:18;;;;;;;10.63;5.63;;;;;;;4.31;95.99;95403.06;5090021;28;20055;-76
2021/11/25 09:25:45;;;;;;;11.50;7.20;;;;;;;4.52;95.88;95417.00;5090128;28;20040;-74
2021/11/25 09:28:18;;;;;;;8.95;5.55;;;;;;;4.58;94.88;95418.88;5085982;28;20047;-73
2021/11/25 09:30:46;;;;;;;10.00;5.78;;;;;;;4.49;95.29;95391.59;5086516;28;20044;-76
2021/11/25 09:33:14;;;;;;;12.65;7.05;;;;;;;4.65;94.96;95412.03;5088616;28;20039;-76
2021/11/25 09:35:41;;;;;;;14.25;7.88;;;;;;;4.49;94.81;95417.38;5086697;28;20578;-78
2021/11/25 09:38:10;;;;;;;16.45;9.27;;;;;;;4.60;95.15;95388.53;5091235;28;20036;-77
2021/11/25 09:40:38;;;;;;;12.35;6.25;;;;;;;4.76;94.87;95419.31;5090180;28;20047;-77
2021/11/25 09:43:08;;;;;;;13.95;7.18;;;;;;;4.50;93.42;95393.16;5068410;28;20058;-77
2021/11/25 09:45:37;;;;;;;10.57;6.50;;;;;;;4.68;93.36;95406.53;5093355;28;20054;-77
2021/11/25 09:48:08;;;;;;;14.00;7.13;;;;;;;4.86;93.74;95407.91;5091644;28;20039;-75
2021/11/25 09:50:38;;;;;;;14.73;6.03;;;;;;;4.88;94.31;95400.78;5095225;28;20044;-77
2021/11/25 09:53:08;;;;;;;13.73;6.07;;;;;;;4.94;92.59;95395.69;5090845;28;20417;-75
2021/11/25 09:55:38;;;;;;;10.95;6.10;;;;;;;5.02;91.54;95389.63;5090834;28;20401;-75
2021/11/25 09:58:06;;;;;;;9.63;4.72;;;;;;;4.96;90.61;95393.72;5091229;28;20035;-75
2021/11/25 10:00:33;;;;;;;8.70;5.43;;;;;;;4.99;92.74;95390.00;5094914;28;20437;-74
2021/11/25 10:03:01;;;;;;;10.45;5.18;;;;;;;5.03;90.62;95398.97;5091949;28;20509;-75
2021/11/25 10:05:29;;;;;;;10.20;5.38;;;;;;;4.83;90.54;95403.13;5091550;28;20055;-75
2021/11/25 10:07:56;;;;;;;11.60;6.93;;;;;;;4.99;91.19;95402.91;5096309;28;20036;-75
2021/11/25 10:10:26;;;;;;;14.85;7.72;;;;;;;4.92;90.75;95408.00;5093201;28;20044;-75
2021/11/25 10:13:12;;;;;;;14.55;7.85;;;;;;;4.73;91.38;95408.56;5086808;28;20058;-75
2021/11/25 10:15:40;;;;;;;21.20;8.95;;;;;;;4.77;91.75;95384.78;5091186;28;20421;-76
2021/11/25 10:18:11;;;;;;;19.90;8.45;;;;;;;4.78;91.07;95395.91;5091266;28;20046;-75
2021/11/25 10:20:50;;;;;;;15.90;7.25;;;;;;;4.91;92.06;95395.25;5093679;28;20566;-75
2021/11/25 10:23:26;;;;;;;16.58;7.45;;;;;;;4.98;92.00;95391.75;5094092;28;20042;-75
2021/11/25 10:26:07;;;;;;;13.55;7.65;;;;;;;5.10;92.32;95379.19;5089256;28;20081;-75
2021/11/25 10:28:39;;;;;;;21.05;8.35;;;;;;;4.99;91.04;95371.94;5091629;28;20408;-75
2021/11/25 10:31:08;;;;;;;15.55;7.30;;;;;;;5.05;91.28;95370.41;5091806;28;20052;-74
2021/11/25 10:33:51;;;;;;;34.15;11.07;;;;;;;4.98;90.75;95365.94;5096526;28;20052;-75
2021/11/25 10:41:59;;;;;;;13.32;6.28;;;;;;;5.43;90.07;95358.03;5087602;28;20066;-75
2021/11/25 10:44:39;;;;;;;22.08;10.30;;;;;;;5.21;89.23;95348.72;5094174;28;20039;-75
2021/11/25 10:47:13;;;;;;;11.73;5.70;;;;;;;5.29;88.70;95346.00;5097808;28;20035;-75
2021/11/25 10:49:43;;;;;;;8.10;4.55;;;;;;;5.33;89.35;95344.63;5098149;28;20043;-75
2021/11/25 10:52:17;;;;;;;14.23;6.45;;;;;;;5.14;88.80;95344.25;5097356;28;20420;-75
2021/11/25 10:55:13;;;;;;;10.43;5.20;;;;;;;5.20;90.25;95326.44;5096281;28;20047;-75
2021/11/25 10:57:42;;;;;;;7.68;4.70;;;;;;;5.48;89.52;95337.63;5066436;28;20052;-75
2021/11/25 11:00:34;;;;;;;8.20;4.38;;;;;;;5.67;89.85;95332.78;5101772;28;20501;-75
2021/11/25 11:03:07;;;;;;;8.80;4.85;;;;;;;5.47;87.98;95328.25;5096001;28;20505;-75
2021/11/25 11:05:52;;;;;;;14.10;7.28;;;;;;;5.41;87.26;95323.84;5095973;28;20528;-74
2021/11/25 11:08:19;;;;;;;;;;;;;;;5.57;89.09;95327.94;5094924;28;20483;-75
2021/11/25 11:10:55;;;;;;;7.53;4.47;;;;;;;5.43;88.41;95321.09;5095812;28;19919;-75
2021/11/25 11:18:53;;;;;;;8.75;5.43;;;;;;;5.58;88.65;95323.56;5103446;28;20071;-75
2021/11/25 11:21:32;;;;;;;8.07;3.90;;;;;;;5.53;87.63;95326.75;5099790;28;20415;-76
2021/11/25 11:24:20;;;;;;;6.85;4.40;;;;;;;5.64;88.36;95322.84;5098449;28;20054;-76
2021/11/25 11:26:51;;;;;;;6.65;4.25;;;;;;;5.55;87.57;95302.28;5079253;28;20583;-76
2021/11/25 11:29:28;;;;;;;8.10;5.70;;;;;;;5.70;88.87;95304.00;5090835;28;20075;-76
2021/11/25 11:31:57;;;;;;;6.40;3.90;;;;;;;5.63;87.70;95300.56;5094033;28;20051;-76
2021/11/25 11:34:26;;;;;;;8.38;4.50;;;;;;;5.34;87.50;95297.16;5076671;28;20453;-76
2021/11/25 11:36:55;;;;;;;9.45;5.43;;;;;;;5.28;88.79;95287.59;5094573;28;20677;-75
2021/11/25 11:39:25;;;;;;;7.60;4.57;;;;;;;5.36;88.68;95279.69;5091539;28;20471;-77
2021/11/25 11:41:57;;;;;;;7.40;4.50;;;;;;;5.56;87.76;95274.66;5088320;28;20071;-76
2021/11/25 11:44:25;;;;;;;7.13;4.63;;;;;;;6.36;84.03;95264.00;5085765;28;20140;-76
2021/11/25 11:47:07;;;;;;;4.90;3.38;;;;;;;6.99;80.51;95269.72;5091443;28;20040;-75
2021/11/25 11:49:37;;;;;;;8.18;4.40;;;;;;;7.50;78.89;95277.91;5094893;28;20409;-75
2021/11/25 11:52:10;;;;;;;6.70;4.28;;;;;;;7.65;78.09;95257.75;5084780;28;20219;-75